createdAt,value
2022-08-16T00:02:30.454Z,26.00
2022-08-16T00:05:57.522Z,25.90
2022-08-16T00:09:20.962Z,26.00
2022-08-16T00:12:46.914Z,25.90
2022-08-16T00:16:57.995Z,25.90
2022-08-16T00:19:55.043Z,25.50
2022-08-16T00:23:18.293Z,25.90
2022-08-16T00:26:47.785Z,25.90
2022-08-16T00:30:25.952Z,25.90
2022-08-16T00:33:52.222Z,25.80
2022-08-16T00:37:17.047Z,25.80
2022-08-16T00:40:53.538Z,25.80
2022-08-16T00:44:21.225Z,25.80
2022-08-16T00:47:49.297Z,25.80
2022-08-16T00:51:16.089Z,25.80
2022-08-16T00:54:40.786Z,25.70
2022-08-16T00:58:12.689Z,25.70
2022-08-16T01:01:36.736Z,25.60
2022-08-16T01:05:09.438Z,25.50
2022-08-16T01:08:36.981Z,25.40
2022-08-16T01:12:00.781Z,25.40
2022-08-16T01:15:24.917Z,25.40
2022-08-16T01:18:54.127Z,25.40
2022-08-16T01:22:48.254Z,25.20
2022-08-16T01:26:34.231Z,25.20
2022-08-16T01:30:01.341Z,25.10
2022-08-16T01:33:33.323Z,25.10
2022-08-16T01:37:02.205Z,25.20
2022-08-16T01:40:28.276Z,25.20
2022-08-16T01:43:54.662Z,25.10
2022-08-16T01:47:21.062Z,25.10
2022-08-16T01:51:09.299Z,25.10
2022-08-16T01:54:30.746Z,25.20
2022-08-16T01:57:56.271Z,25.20
2022-08-16T02:01:21.922Z,25.20
2022-08-16T02:04:49.048Z,25.20
2022-08-16T02:08:32.847Z,25.20
2022-08-16T02:11:59.588Z,25.20
2022-08-16T02:15:43.806Z,25.20
2022-08-16T02:19:16.132Z,25.20
2022-08-16T02:22:39.816Z,25.30
2022-08-16T02:26:03.297Z,25.30
2022-08-16T02:29:32.136Z,25.30
2022-08-16T02:32:55.869Z,25.30
2022-08-16T02:36:47.873Z,25.30
2022-08-16T02:40:06.673Z,25.30
2022-08-16T02:43:33.986Z,25.30
2022-08-16T02:47:00.645Z,25.30
2022-08-16T02:51:03.098Z,25.30
2022-08-16T02:54:13.708Z,25.30
2022-08-16T02:57:42.444Z,25.30
2022-08-16T03:01:25.339Z,25.30
2022-08-16T03:05:00.704Z,25.30
2022-08-16T03:08:51.007Z,25.30
2022-08-16T03:12:10.104Z,25.30
2022-08-16T03:15:39.836Z,25.30
2022-08-16T03:19:03.248Z,25.20
2022-08-16T03:22:29.998Z,25.20
2022-08-16T03:25:57.241Z,25.20
2022-08-16T03:29:21.700Z,25.20
2022-08-16T03:32:48.024Z,25.20
2022-08-16T03:36:30.350Z,25.20
2022-08-16T03:40:03.001Z,25.20
2022-08-16T03:43:51.437Z,25.20
2022-08-16T03:47:19.122Z,25.20
2022-08-16T03:50:44.190Z,25.10
2022-08-16T03:54:23.545Z,25.20
2022-08-16T03:57:52.252Z,25.10
2022-08-16T04:01:17.118Z,25.10
2022-08-16T04:04:41.974Z,25.10
2022-08-16T04:08:23.443Z,25.10
2022-08-16T04:11:49.945Z,25.10
2022-08-16T04:15:18.521Z,25.10
2022-08-16T04:18:54.307Z,25.00
2022-08-16T04:22:27.749Z,25.00
2022-08-16T04:25:54.229Z,25.00
2022-08-16T04:29:23.920Z,25.00
2022-08-16T04:32:49.217Z,25.00
2022-08-16T04:36:17.162Z,24.90
2022-08-16T04:39:47.290Z,24.90
2022-08-16T04:43:21.256Z,24.90
2022-08-16T04:47:03.227Z,24.90
2022-08-16T04:50:30.629Z,24.90
2022-08-16T04:54:11.002Z,24.90
2022-08-16T04:57:36.247Z,24.90
2022-08-16T05:01:00.068Z,24.90
2022-08-16T05:04:23.933Z,24.90
2022-08-16T05:07:58.370Z,24.80
2022-08-16T05:11:31.879Z,24.80
2022-08-16T05:15:01.956Z,24.80
2022-08-16T05:18:28.717Z,24.80
2022-08-16T05:21:55.536Z,24.80
2022-08-16T05:25:19.327Z,24.80
2022-08-16T05:28:47.560Z,24.80
2022-08-16T05:32:32.381Z,24.80
2022-08-16T05:36:03.866Z,24.80
2022-08-16T05:39:40.782Z,24.80
2022-08-16T05:43:05.097Z,24.80
2022-08-16T05:46:31.233Z,24.80
2022-08-16T05:50:19.015Z,24.80
2022-08-16T05:53:43.921Z,24.80
2022-08-16T05:57:13.443Z,24.80
2022-08-16T06:00:37.244Z,24.80
2022-08-16T06:04:00.534Z,24.80
2022-08-16T06:07:31.965Z,24.80
2022-08-16T06:11:10.197Z,24.90
2022-08-16T06:14:34.583Z,24.80
2022-08-16T06:18:00.475Z,24.80
2022-08-16T06:21:24.827Z,24.80
2022-08-16T06:24:56.386Z,24.80
2022-08-16T06:28:36.700Z,24.70
2022-08-16T06:32:04.216Z,24.50
2022-08-16T06:35:28.002Z,24.40
2022-08-16T06:39:06.151Z,24.30
2022-08-16T06:42:57.326Z,24.50
2022-08-16T06:46:34.392Z,24.50
2022-08-16T06:50:29.699Z,24.50
2022-08-16T06:53:58.225Z,24.50
2022-08-16T06:57:21.459Z,24.50
2022-08-16T07:00:45.955Z,24.50
2022-08-16T07:04:10.508Z,24.50
2022-08-16T07:07:36.358Z,24.50
2022-08-16T07:11:01.522Z,24.50
2022-08-16T07:14:28.354Z,24.50
2022-08-16T07:17:56.363Z,24.40
2022-08-16T07:21:19.506Z,24.30
2022-08-16T07:24:45.876Z,24.40
2022-08-16T07:28:12.158Z,24.40
2022-08-16T07:31:44.418Z,24.50
2022-08-16T07:35:10.270Z,24.40
2022-08-16T07:38:34.252Z,24.40
2022-08-16T07:41:59.425Z,24.50
2022-08-16T07:45:22.737Z,24.70
2022-08-16T07:48:48.162Z,24.80
2022-08-16T07:52:20.095Z,24.90
2022-08-16T07:55:47.810Z,25.00
2022-08-16T07:59:16.934Z,25.10
2022-08-16T08:02:40.499Z,25.20
2022-08-16T08:06:11.926Z,25.20
2022-08-16T08:09:36.486Z,25.30
2022-08-16T08:13:08.294Z,25.40
2022-08-16T08:16:32.745Z,25.40
2022-08-16T08:19:56.390Z,25.20
2022-08-16T08:23:20.951Z,25.10
2022-08-16T08:26:50.365Z,25.00
2022-08-16T08:30:51.982Z,25.00
2022-08-16T08:33:59.910Z,25.00
2022-08-16T08:37:23.613Z,25.00
2022-08-16T08:40:51.262Z,25.00
2022-08-16T08:44:29.157Z,25.00
2022-08-16T08:47:58.905Z,25.00
2022-08-16T08:51:27.576Z,25.10
2022-08-16T08:54:56.245Z,25.10
2022-08-16T08:58:19.541Z,25.20
2022-08-16T09:01:58.608Z,25.20
2022-08-16T09:05:37.349Z,25.20
2022-08-16T09:09:04.020Z,25.30
2022-08-16T09:12:36.179Z,25.40
2022-08-16T09:16:10.407Z,25.40
2022-08-16T09:19:40.967Z,25.40
2022-08-16T09:23:04.653Z,25.50
2022-08-16T09:26:45.866Z,25.60
2022-08-16T09:30:34.706Z,25.60
2022-08-16T09:33:54.282Z,25.60
2022-08-16T09:37:19.861Z,25.60
2022-08-16T09:40:52.691Z,25.70
2022-08-16T09:45:09.075Z,25.80
2022-08-16T09:47:59.909Z,25.90
2022-08-16T09:51:26.216Z,25.90
2022-08-16T09:54:56.045Z,26.00
2022-08-16T09:58:37.741Z,26.00
2022-08-16T10:02:27.305Z,26.10
2022-08-16T10:05:46.861Z,26.10
2022-08-16T10:09:11.613Z,26.20
2022-08-16T10:12:55.886Z,26.20
2022-08-16T10:16:22.002Z,26.30
2022-08-16T10:19:47.079Z,26.30
2022-08-16T10:23:16.981Z,26.40
2022-08-16T10:27:17.977Z,26.40
2022-08-16T10:30:28.497Z,26.40
2022-08-16T10:33:54.097Z,26.50
2022-08-16T10:37:17.339Z,26.50
2022-08-16T10:40:56.017Z,26.50
2022-08-16T10:44:19.092Z,26.60
2022-08-16T10:47:43.510Z,26.70
2022-08-16T10:51:08.218Z,26.70
2022-08-16T10:54:32.045Z,26.70
2022-08-16T10:57:57.212Z,26.80
2022-08-16T11:01:43.250Z,26.80
2022-08-16T11:05:08.774Z,26.90
2022-08-16T11:08:36.206Z,27.00
2022-08-16T11:12:13.987Z,27.00
2022-08-16T11:15:39.042Z,27.10
2022-08-16T11:19:12.450Z,27.20
2022-08-16T11:22:47.654Z,27.30
2022-08-16T11:26:24.174Z,27.40
2022-08-16T11:29:47.604Z,27.50
2022-08-16T11:33:11.219Z,27.60
2022-08-16T11:36:34.260Z,27.70
2022-08-16T11:39:59.930Z,27.80
2022-08-16T11:43:26.444Z,28.00
2022-08-16T11:46:49.715Z,28.20
2022-08-16T11:50:16.952Z,28.20
2022-08-16T11:53:42.333Z,28.20
2022-08-16T11:57:09.305Z,28.20
2022-08-16T12:00:50.485Z,28.10
2022-08-16T12:04:14.609Z,28.30
2022-08-16T12:07:38.348Z,28.40
2022-08-16T12:11:02.736Z,28.50
2022-08-16T12:14:27.309Z,28.40
2022-08-16T12:17:53.832Z,28.50
2022-08-16T12:21:17.342Z,28.60
2022-08-16T12:24:43.026Z,28.80
2022-08-16T12:28:08.441Z,29.30
2022-08-16T12:31:33.138Z,29.20
2022-08-16T12:34:56.148Z,29.00
2022-08-16T12:38:41.252Z,28.80
2022-08-16T12:42:02.973Z,28.70
2022-08-16T12:45:28.783Z,28.50
2022-08-16T12:48:59.339Z,28.50
2022-08-16T12:52:33.331Z,28.50
2022-08-16T12:55:57.495Z,28.60
2022-08-16T12:59:21.907Z,28.60
2022-08-16T13:02:48.031Z,28.70
2022-08-16T13:06:14.716Z,28.80
2022-08-16T13:09:52.409Z,28.80
2022-08-16T13:13:24.440Z,28.80
2022-08-16T13:16:47.542Z,29.30
2022-08-16T13:20:16.155Z,30.10
2022-08-16T13:23:43.665Z,30.50
2022-08-16T13:27:07.094Z,30.60
2022-08-16T13:30:41.651Z,30.70
2022-08-16T13:34:09.397Z,30.40
2022-08-16T13:37:33.464Z,30.10
2022-08-16T13:41:02.292Z,29.80
2022-08-16T13:44:48.861Z,29.60
2022-08-16T13:48:09.425Z,29.50
2022-08-16T13:51:34.044Z,29.60
2022-08-16T13:54:58.145Z,30.10
2022-08-16T13:58:36.697Z,30.60
2022-08-16T14:02:04.009Z,31.10
2022-08-16T14:05:28.636Z,31.40
2022-08-16T14:08:59.092Z,31.40
2022-08-16T14:12:32.714Z,31.50
2022-08-16T14:15:57.245Z,31.60
2022-08-16T14:19:22.589Z,31.70
2022-08-16T14:22:45.872Z,31.40
2022-08-16T14:26:16.100Z,31.20
2022-08-16T14:29:39.511Z,31.00
2022-08-16T14:33:04.734Z,30.90
2022-08-16T14:36:30.158Z,31.10
2022-08-16T14:39:53.647Z,31.40
2022-08-16T14:43:16.721Z,31.50
2022-08-16T14:46:39.816Z,31.20
2022-08-16T14:50:07.780Z,31.00
2022-08-16T14:53:32.804Z,30.80
2022-08-16T14:56:55.971Z,30.60
2022-08-16T15:00:20.110Z,30.40
2022-08-16T15:03:44.791Z,30.30
2022-08-16T15:07:12.498Z,30.20
2022-08-16T15:10:37.311Z,30.20
2022-08-16T15:14:06.330Z,30.30
2022-08-16T15:17:34.077Z,30.30
2022-08-16T15:21:00.594Z,30.40
2022-08-16T15:24:25.349Z,30.50
2022-08-16T15:27:54.694Z,30.60
2022-08-16T15:31:18.987Z,30.70
2022-08-16T15:34:44.704Z,30.80
2022-08-16T15:38:09.131Z,30.80
2022-08-16T15:42:01.058Z,30.70
2022-08-16T15:45:39.778Z,30.60
2022-08-16T15:49:09.154Z,30.50
2022-08-16T15:52:34.489Z,30.40
2022-08-16T15:55:58.509Z,30.20
2022-08-16T15:59:24.098Z,30.10
2022-08-16T16:02:50.657Z,30.00
2022-08-16T16:06:16.958Z,30.00
2022-08-16T16:09:43.058Z,29.90
2022-08-16T16:13:09.255Z,29.80
2022-08-16T16:16:34.443Z,29.70
2022-08-16T16:19:57.774Z,29.70
2022-08-16T16:23:25.286Z,29.70
2022-08-16T16:26:49.277Z,29.70
2022-08-16T16:30:33.331Z,29.80
2022-08-16T16:34:00.761Z,29.90
2022-08-16T16:37:23.799Z,30.10
2022-08-16T16:40:54.158Z,30.10
2022-08-16T16:44:18.253Z,30.20
2022-08-16T16:47:49.232Z,30.20
2022-08-16T16:51:19.526Z,30.20
2022-08-16T16:54:42.655Z,30.30
2022-08-16T16:58:35.423Z,30.40
2022-08-16T17:02:38.849Z,30.60
2022-08-16T17:05:43.882Z,30.70
2022-08-16T17:09:21.518Z,30.70
2022-08-16T17:12:46.958Z,30.70
2022-08-16T17:16:18.578Z,30.70
2022-08-16T17:19:42.434Z,30.70
2022-08-16T17:23:06.256Z,30.60
2022-08-16T17:26:33.550Z,30.50
2022-08-16T17:29:57.712Z,30.30
2022-08-16T17:33:23.202Z,30.10
2022-08-16T17:36:53.340Z,30.00
2022-08-16T17:40:40.693Z,29.90
2022-08-16T17:44:02.145Z,29.80
2022-08-16T17:47:25.137Z,29.70
2022-08-16T17:50:48.161Z,29.70
2022-08-16T17:54:30.075Z,29.60
2022-08-16T17:57:54.654Z,29.60
2022-08-16T18:01:23.794Z,29.60
2022-08-16T18:04:49.528Z,29.60
2022-08-16T18:08:13.210Z,29.60
2022-08-16T18:11:41.205Z,29.50
2022-08-16T18:15:07.506Z,29.50
2022-08-16T18:18:31.910Z,29.40
2022-08-16T18:22:15.035Z,29.30
2022-08-16T18:25:40.467Z,29.30
2022-08-16T18:29:04.028Z,29.30
2022-08-16T18:32:27.538Z,29.20
2022-08-16T18:35:57.110Z,29.20
2022-08-16T18:39:20.778Z,29.10
2022-08-16T18:42:55.435Z,29.10
2022-08-16T18:46:18.665Z,29.10
2022-08-16T18:49:41.701Z,29.00
2022-08-16T18:53:09.951Z,29.00
2022-08-16T18:56:55.248Z,29.00
2022-08-16T19:00:16.599Z,28.90
2022-08-16T19:03:39.649Z,28.90
2022-08-16T19:07:02.692Z,28.90
2022-08-16T19:10:27.157Z,28.80
2022-08-16T19:13:51.097Z,28.80
2022-08-16T19:17:14.174Z,28.80
2022-08-16T19:20:38.519Z,28.80
2022-08-16T19:24:01.661Z,28.70
2022-08-16T19:27:33.690Z,28.70
2022-08-16T19:30:57.177Z,28.70
2022-08-16T19:34:20.444Z,28.70
2022-08-16T19:37:46.269Z,28.60
2022-08-16T19:41:09.952Z,28.60
2022-08-16T19:44:34.477Z,28.60
2022-08-16T19:48:03.620Z,28.60
2022-08-16T19:51:26.898Z,28.50
2022-08-16T19:54:52.598Z,28.50
2022-08-16T19:58:16.959Z,28.50
2022-08-16T20:01:43.099Z,28.50
2022-08-16T20:05:07.119Z,28.50
2022-08-16T20:08:30.505Z,28.50
2022-08-16T20:11:54.696Z,28.40
2022-08-16T20:15:19.768Z,28.40
2022-08-16T20:18:47.070Z,28.40
2022-08-16T20:22:51.686Z,28.40
2022-08-16T20:26:05.735Z,28.40
2022-08-16T20:29:28.988Z,28.30
2022-08-16T20:32:53.372Z,28.30
2022-08-16T20:36:18.101Z,28.30
2022-08-16T20:39:44.079Z,28.20
2022-08-16T20:43:09.809Z,28.20
2022-08-16T20:46:32.913Z,28.20
2022-08-16T20:50:02.374Z,28.20
2022-08-16T20:53:26.774Z,28.20
2022-08-16T20:56:50.002Z,28.20
2022-08-16T21:00:14.649Z,28.20
2022-08-16T21:03:38.207Z,28.20
2022-08-16T21:07:01.296Z,28.10
2022-08-16T21:10:26.007Z,28.10
2022-08-16T21:13:49.168Z,28.10
2022-08-16T21:17:16.096Z,28.00
2022-08-16T21:20:39.516Z,28.00
2022-08-16T21:24:02.658Z,27.90
2022-08-16T21:27:27.097Z,27.80
2022-08-16T21:30:51.310Z,27.70
2022-08-16T21:34:14.399Z,27.70
2022-08-16T21:37:37.507Z,27.60
2022-08-16T21:41:01.468Z,27.60
2022-08-16T21:44:32.523Z,27.50
2022-08-16T21:48:03.085Z,27.50
2022-08-16T21:51:26.178Z,27.50
2022-08-16T21:54:49.289Z,27.50
2022-08-16T21:58:17.082Z,27.50
2022-08-16T22:01:43.099Z,27.40
2022-08-16T22:05:06.761Z,27.40
2022-08-16T22:08:30.758Z,27.40
2022-08-16T22:11:53.756Z,27.30
2022-08-16T22:15:24.871Z,27.30
2022-08-16T22:18:52.079Z,27.30
2022-08-16T22:22:15.639Z,27.20
2022-08-16T22:25:39.629Z,27.20
2022-08-16T22:29:05.787Z,27.20
2022-08-16T22:32:29.013Z,27.20
2022-08-16T22:35:55.077Z,27.20
2022-08-16T22:39:18.137Z,27.10
2022-08-16T22:42:47.569Z,27.10
2022-08-16T22:46:10.640Z,27.10
2022-08-16T22:49:33.833Z,27.10
2022-08-16T22:52:58.660Z,27.10
2022-08-16T22:56:22.021Z,27.00
2022-08-16T22:59:45.129Z,27.00
2022-08-16T23:03:11.165Z,27.00
2022-08-16T23:06:34.180Z,27.00
2022-08-16T23:09:59.708Z,26.90
2022-08-16T23:13:24.475Z,27.00
2022-08-16T23:16:48.053Z,26.90
2022-08-16T23:20:12.289Z,26.90
2022-08-16T23:23:35.737Z,26.90
2022-08-16T23:27:00.475Z,26.80
2022-08-16T23:30:25.538Z,26.80
2022-08-16T23:33:48.689Z,26.80
2022-08-16T23:37:11.772Z,26.70
2022-08-16T23:40:36.126Z,26.70
2022-08-16T23:44:01.773Z,26.70
2022-08-16T23:47:44.757Z,26.70
2022-08-16T23:51:09.500Z,26.60
2022-08-16T23:54:32.498Z,26.60
2022-08-16T23:57:55.670Z,26.60
